Time;durP1;ratioP1;P1;durP2;ratioP2;P2;SDS_P1;SDS_P2;PMS_P1;PMS_P2;Temp;Humidity;BMP_temperature;BMP_pressure;BME280_temperature;BME280_humidity;BME280_pressure;Samples;Min_cycle;Max_cycle;Signal;HPM_P1;HPM_P2
2023/07/15 00:01:14;;;;;;;6.65;6.25;;;;;;;20.99;53.66;99754.50;6113784;23;20025;-69
2023/07/15 00:03:40;;;;;;;5.90;5.60;;;;;;;20.82;53.67;99731.53;6112876;23;20110;-70
2023/07/15 00:06:09;;;;;;;6.50;6.00;;;;;;;20.92;53.61;99724.19;6085167;23;20002;-69
2023/07/15 00:08:36;;;;;;;6.38;5.97;;;;;;;20.62;53.69;99701.75;6110056;23;20037;-69
2023/07/15 00:11:03;;;;;;;9.48;6.57;;;;;;;20.80;53.63;99741.53;6107869;23;20035;-69
2023/07/15 00:13:29;;;;;;;6.15;5.78;;;;;;;20.75;53.53;99717.22;6089867;23;20088;-69
2023/07/15 00:15:57;;;;;;;6.22;5.93;;;;;;;20.62;53.92;99699.91;6111171;23;20029;-69
2023/07/15 00:18:25;;;;;;;6.85;6.10;;;;;;;20.69;53.55;99710.75;6108243;23;20014;-69
2023/07/15 00:20:51;;;;;;;6.60;6.18;;;;;;;20.65;53.38;99714.75;6065289;23;20040;-70
2023/07/15 00:23:22;;;;;;;6.18;5.78;;;;;;;20.66;53.82;99727.91;6109901;23;20603;-70
2023/07/15 00:25:53;;;;;;;6.55;6.03;;;;;;;20.67;54.30;99728.75;6078739;23;20026;-69
2023/07/15 00:28:24;;;;;;;6.35;6.00;;;;;;;20.42;53.89;99686.09;6110650;23;20026;-69
2023/07/15 00:30:53;;;;;;;6.50;6.10;;;;;;;20.63;54.42;99722.09;6112266;23;20049;-70
2023/07/15 00:33:20;;;;;;;6.25;5.78;;;;;;;20.51;54.27;99708.25;6110828;23;20021;-69
2023/07/15 00:35:47;;;;;;;6.35;5.95;;;;;;;20.56;54.23;99729.88;6105150;23;21344;-69
2023/07/15 00:38:13;;;;;;;7.03;6.43;;;;;;;20.19;54.70;99680.63;6079641;23;20057;-71
2023/07/15 00:40:44;;;;;;;6.70;6.20;;;;;;;20.49;54.60;99736.91;6109677;23;20022;-69
2023/07/15 00:43:48;;;;;;;6.38;5.88;;;;;;;20.44;54.73;99728.56;6107926;23;20074;-70
2023/07/15 00:46:18;;;;;;;6.50;5.90;;;;;;;20.40;54.93;99732.56;6112196;23;20024;-70
2023/07/15 00:49:01;;;;;;;6.47;6.07;;;;;;;20.33;55.09;99727.91;6109559;23;20014;-69
2023/07/15 00:51:29;;;;;;;;;;;;;;;20.31;55.28;99734.41;6106002;23;20019;-70
2023/07/15 00:53:55;;;;;;;6.13;5.70;;;;;;;19.90;55.65;99679.28;6114437;23;20336;-69
2023/07/15 00:56:22;;;;;;;6.22;5.82;;;;;;;20.16;56.07;99718.25;6111384;23;20012;-70
2023/07/15 00:58:50;;;;;;;6.05;5.75;;;;;;;19.78;55.88;99656.63;6110054;23;20128;-71
2023/07/15 01:01:17;;;;;;;6.43;5.93;;;;;;;20.21;55.64;99715.94;6111064;23;20025;-69
2023/07/15 01:03:44;;;;;;;6.90;6.00;;;;;;;20.18;55.93;99724.25;6109171;23;20124;-70
2023/07/15 01:06:13;;;;;;;6.10;5.80;;;;;;;20.01;56.20;99696.78;6105323;23;20550;-69
2023/07/15 01:08:40;;;;;;;6.50;6.10;;;;;;;19.63;55.79;99658.28;6106269;23;20034;-70
2023/07/15 01:11:07;;;;;;;6.50;6.07;;;;;;;20.11;56.54;99716.09;6107444;23;20012;-69
2023/07/15 01:13:34;;;;;;;6.70;6.15;;;;;;;19.76;56.47;99665.78;6108659;23;20021;-70
2023/07/15 01:16:01;;;;;;;6.90;6.40;;;;;;;20.12;56.59;99714.25;6113582;23;20354;-69
2023/07/15 01:18:28;;;;;;;6.10;5.75;;;;;;;19.93;56.50;99678.13;6085235;23;20057;-69
2023/07/15 01:20:59;;;;;;;6.05;5.65;;;;;;;19.96;57.05;99672.47;6113413;23;20085;-70
2023/07/15 01:23:29;;;;;;;6.20;5.80;;;;;;;20.09;56.79;99703.94;6094796;23;20600;-70
2023/07/15 01:25:56;;;;;;;6.00;5.60;;;;;;;20.05;56.63;99703.44;6095332;23;20042;-69
2023/07/15 01:28:23;;;;;;;5.82;5.43;;;;;;;20.13;56.64;99699.94;6117691;23;20021;-69
2023/07/15 01:30:50;;;;;;;6.55;6.00;;;;;;;19.68;56.76;99624.81;6113000;23;20092;-70
2023/07/15 01:33:18;;;;;;;6.30;5.80;;;;;;;19.73;56.68;99635.84;6098058;23;20033;-71
2023/07/15 01:35:48;;;;;;;6.22;5.82;;;;;;;20.15;56.71;99695.28;6089416;23;20029;-71
2023/07/15 01:38:15;;;;;;;5.90;5.60;;;;;;;19.83;56.75;99653.50;6112770;23;20049;-69
2023/07/15 01:40:42;;;;;;;5.75;5.45;;;;;;;20.01;56.98;99678.13;6110490;23;20030;-70
2023/07/15 01:43:10;;;;;;;6.05;5.50;;;;;;;20.18;56.73;99702.94;6118227;23;20054;-69
2023/07/15 01:45:39;;;;;;;5.95;5.63;;;;;;;20.22;56.99;99692.78;6086147;23;20092;-69
2023/07/15 01:48:07;;;;;;;6.15;5.75;;;;;;;20.28;56.72;99695.59;6110769;23;20428;-70
2023/07/15 01:50:35;;;;;;;6.15;5.75;;;;;;;20.06;56.38;99638.50;6089425;23;20026;-69
2023/07/15 01:53:02;;;;;;;5.82;5.53;;;;;;;20.45;55.92;99677.78;6112124;23;20017;-69
2023/07/15 01:55:28;;;;;;;5.88;5.57;;;;;;;20.49;55.77;99676.44;6090718;23;20420;-69
2023/07/15 01:57:55;;;;;;;5.90;5.60;;;;;;;20.29;55.41;99624.50;6115463;23;20017;-70
2023/07/15 02:00:23;;;;;;;5.93;5.60;;;;;;;20.57;55.50;99677.41;6086908;23;20031;-69
2023/07/15 02:02:50;;;;;;;6.05;5.65;;;;;;;20.25;55.30;99624.00;6089606;23;20029;-69
2023/07/15 02:05:17;;;;;;;5.97;5.57;;;;;;;20.55;55.70;99661.59;6111012;23;20017;-72
2023/07/15 02:07:44;;;;;;;6.13;5.75;;;;;;;20.40;55.54;99658.78;6112058;23;20029;-70
2023/07/15 02:10:10;;;;;;;6.00;5.60;;;;;;;20.45;55.70;99669.78;6114256;23;20666;-72
2023/07/15 02:12:37;;;;;;;5.78;5.47;;;;;;;20.32;55.96;99658.78;6086244;23;20051;-71
2023/07/15 02:15:04;;;;;;;5.82;5.53;;;;;;;20.30;55.64;99664.28;6090368;23;20671;-70
2023/07/15 02:17:31;;;;;;;6.10;5.63;;;;;;;20.25;55.86;99668.47;6113059;23;20029;-71
2023/07/15 02:19:59;;;;;;;6.28;5.68;;;;;;;19.97;56.45;99641.34;6090437;23;20505;-68
2023/07/15 02:22:26;;;;;;;6.00;5.55;;;;;;;20.06;56.14;99641.16;6114480;23;20207;-69
2023/07/15 02:24:52;;;;;;;6.13;5.63;;;;;;;20.21;56.11;99664.47;6088658;23;20022;-70
2023/07/15 02:27:18;;;;;;;6.20;5.80;;;;;;;20.32;56.11;99664.94;6112146;23;20096;-69
2023/07/15 02:29:45;;;;;;;8.10;5.95;;;;;;;19.81;55.92;99595.09;6089300;23;20026;-69
2023/07/15 02:32:34;;;;;;;6.32;5.93;;;;;;;20.21;56.00;99652.00;6113579;23;20107;-70
2023/07/15 02:35:03;;;;;;;6.35;5.88;;;;;;;20.27;56.35;99674.47;6085481;23;20029;-70
2023/07/15 02:37:29;;;;;;;5.85;5.55;;;;;;;20.12;56.46;99668.97;6111562;23;20030;-70
2023/07/15 02:39:56;;;;;;;5.97;5.65;;;;;;;20.02;56.64;99652.31;6109086;23;20049;-69
2023/07/15 02:42:22;;;;;;;5.70;5.40;;;;;;;20.07;56.97;99677.47;6107755;23;20033;-70
2023/07/15 02:44:49;;;;;;;6.18;5.78;;;;;;;19.67;56.38;99617.84;6081518;23;20022;-71
2023/07/15 02:47:15;;;;;;;6.22;5.82;;;;;;;19.99;56.80;99669.47;6111039;23;20530;-70
2023/07/15 02:49:41;;;;;;;6.00;5.70;;;;;;;19.96;56.80;99680.44;6111831;23;20085;-70
2023/07/15 02:52:08;;;;;;;5.70;5.40;;;;;;;18.65;56.80;99481.50;6115303;23;20033;-70
2023/07/15 02:54:35;;;;;;;7.93;5.65;;;;;;;19.73;56.98;99653.66;6110455;23;20012;-70
2023/07/15 02:57:02;;;;;;;5.90;5.60;;;;;;;19.83;57.33;99672.13;6087017;23;20033;-70
2023/07/15 02:59:28;;;;;;;5.88;5.53;;;;;;;19.79;57.46;99676.94;6113197;23;20013;-69
2023/07/15 03:01:54;;;;;;;6.10;5.63;;;;;;;19.17;57.69;99576.19;6113534;23;20035;-69
2023/07/15 03:04:21;;;;;;;6.03;5.60;;;;;;;19.70;57.50;99688.53;6114545;23;20108;-69
2023/07/15 03:06:47;;;;;;;6.13;5.72;;;;;;;19.51;57.49;99658.56;6088879;23;20032;-69
2023/07/15 03:09:14;;;;;;;6.18;5.82;;;;;;;19.59;57.73;99664.91;6111236;23;20017;-69
2023/07/15 03:11:40;;;;;;;7.00;5.88;;;;;;;19.48;57.68;99650.06;6105648;23;20030;-70
2023/07/15 03:14:07;;;;;;;6.00;5.70;;;;;;;19.30;57.67;99621.78;6111991;23;20063;-70
2023/07/15 03:16:33;;;;;;;5.85;5.55;;;;;;;19.13;57.74;99591.66;6113720;23;20075;-69
2023/07/15 03:19:00;;;;;;;6.13;5.53;;;;;;;19.65;57.50;99669.59;6111607;23;20018;-70
2023/07/15 03:21:26;;;;;;;5.90;5.50;;;;;;;19.12;57.38;99584.69;6113309;23;20040;-69
2023/07/15 03:23:52;;;;;;;5.97;5.68;;;;;;;19.63;57.78;99669.75;6113304;23;20029;-69
2023/07/15 03:26:19;;;;;;;5.65;5.35;;;;;;;19.65;57.46;99669.59;6111911;23;20052;-70
2023/07/15 03:28:46;;;;;;;6.13;5.65;;;;;;;19.67;57.43;99667.59;6108588;23;20093;-70
2023/07/15 03:31:12;;;;;;;5.93;5.57;;;;;;;19.43;57.05;99618.66;6109405;23;20009;-69
2023/07/15 03:33:38;;;;;;;6.18;5.70;;;;;;;19.42;57.36;99632.09;6112026;23;20032;-69
2023/07/15 03:36:05;;;;;;;5.80;5.50;;;;;;;19.65;57.50;99667.75;6114164;23;20072;-69
2023/07/15 03:38:31;;;;;;;5.65;5.35;;;;;;;19.68;56.91;99662.06;6111805;23;20037;-68
2023/07/15 03:40:57;;;;;;;5.95;5.65;;;;;;;19.44;56.86;99614.16;6085341;23;20032;-69
2023/07/15 03:43:24;;;;;;;5.75;5.40;;;;;;;19.77;56.72;99657.66;6110919;23;20077;-69
2023/07/15 03:45:50;;;;;;;5.85;5.47;;;;;;;19.59;56.63;99627.66;6106041;23;20432;-69
2023/07/15 03:48:17;;;;;;;6.32;6.00;;;;;;;19.64;56.28;99615.50;6099683;23;20056;-69
2023/07/15 03:50:45;;;;;;;6.40;5.90;;;;;;;19.68;56.04;99616.00;6127446;23;20178;-68
2023/07/15 03:53:12;;;;;;;5.82;5.53;;;;;;;19.93;56.15;99647.00;6110285;23;20017;-70
2023/07/15 03:55:38;;;;;;;5.75;5.45;;;;;;;19.76;55.66;99600.06;6116870;23;20024;-70
2023/07/15 03:58:05;;;;;;;5.60;5.30;;;;;;;20.04;55.44;99637.00;6110655;23;20014;-69
2023/07/15 04:00:31;;;;;;;6.45;5.80;;;;;;;19.22;55.23;99498.56;6102546;23;20494;-70
2023/07/15 04:02:58;;;;;;;5.57;5.28;;;;;;;19.98;55.44;99617.19;6114320;23;20411;-70
2023/07/15 04:05:24;;;;;;;5.85;5.55;;;;;;;20.13;54.72;99633.34;6112560;23;20041;-71
2023/07/15 04:07:51;;;;;;;5.57;5.28;;;;;;;20.29;54.92;99641.31;6108842;23;20628;-69
2023/07/15 04:10:17;;;;;;;6.22;5.80;;;;;;;19.47;54.68;99502.91;6113541;23;20020;-69
2023/07/15 04:12:44;;;;;;;5.70;5.40;;;;;;;20.03;54.39;99561.63;6087927;23;20507;-69
2023/07/15 04:15:10;;;;;;;5.50;5.20;;;;;;;20.58;54.25;99639.09;6080816;23;20093;-70
2023/07/15 04:17:37;;;;;;;6.13;5.72;;;;;;;20.79;53.19;99627.88;6111657;23;20037;-69
2023/07/15 04:20:10;;;;;;;6.05;5.68;;;;;;;21.02;51.65;99521.25;6111057;23;20030;-70
2023/07/15 04:22:37;;;;;;;6.13;5.72;;;;;;;22.21;50.53;99607.09;6113041;23;20100;-70
2023/07/15 04:25:04;;;;;;;6.40;6.00;;;;;;;22.53;49.47;99581.88;6112539;23;20037;-71
2023/07/15 04:27:30;;;;;;;5.97;5.60;;;;;;;23.09;47.97;99597.41;6068302;23;20025;-68
2023/07/15 04:29:57;;;;;;;6.50;5.90;;;;;;;23.24;46.95;99573.28;6110334;23;20075;-70
2023/07/15 04:32:24;;;;;;;5.97;5.68;;;;;;;23.60;46.14;99564.38;6109635;23;20065;-70
2023/07/15 04:34:53;;;;;;;6.45;6.05;;;;;;;24.00;45.76;99559.38;6086310;23;20026;-69
2023/07/15 04:37:20;;;;;;;6.20;5.88;;;;;;;24.16;44.99;99542.97;6106728;23;20096;-68
2023/07/15 04:39:46;;;;;;;6.40;6.00;;;;;;;24.66;44.75;99586.59;6110516;23;20116;-69
2023/07/15 04:42:12;;;;;;;6.43;6.03;;;;;;;24.73;43.47;99526.75;6108119;23;20021;-69
2023/07/15 04:44:39;;;;;;;6.40;6.00;;;;;;;25.19;43.23;99591.31;6091749;23;20028;-69
2023/07/15 04:47:05;;;;;;;6.07;5.78;;;;;;;24.66;43.14;99467.72;6108003;23;20033;-68
2023/07/15 04:49:32;;;;;;;6.30;5.90;;;;;;;25.17;42.82;99545.06;6109539;23;20086;-68
2023/07/15 04:51:58;;;;;;;7.00;6.45;;;;;;;25.15;42.14;99506.03;6111496;23;20066;-68
2023/07/15 04:54:25;;;;;;;6.20;5.80;;;;;;;25.65;41.67;99581.72;6116827;23;20088;-68
2023/07/15 04:56:51;;;;;;;6.55;6.15;;;;;;;25.97;41.46;99616.91;6092471;23;20023;-69
2023/07/15 04:59:18;;;;;;;6.32;5.90;;;;;;;25.74;41.64;99575.13;6112316;23;20089;-68
2023/07/15 05:01:44;;;;;;;6.03;5.72;;;;;;;25.34;41.17;99505.25;6115329;23;20241;-69
2023/07/15 05:04:13;;;;;;;6.40;6.07;;;;;;;26.26;40.92;99616.47;6109803;23;20038;-69
2023/07/15 05:06:39;;;;;;;6.40;6.00;;;;;;;26.61;40.72;99645.00;6118165;23;20049;-69
2023/07/15 05:09:05;;;;;;;6.68;6.28;;;;;;;27.09;39.88;99657.28;6092543;23;20020;-69
2023/07/15 05:11:32;;;;;;;6.32;6.03;;;;;;;27.27;39.63;99659.31;6116060;23;20464;-68
2023/07/15 05:13:58;;;;;;;6.60;6.20;;;;;;;27.00;39.31;99617.13;6116395;23;20057;-68
2023/07/15 05:16:26;;;;;;;6.50;6.10;;;;;;;27.32;38.74;99617.19;6109529;23;20024;-70
2023/07/15 05:18:53;;;;;;;6.35;5.95;;;;;;;27.56;38.62;99633.63;6114723;23;20029;-68
2023/07/15 05:21:19;;;;;;;6.50;6.00;;;;;;;27.93;37.94;99647.31;6083025;23;20045;-68
2023/07/15 05:23:46;;;;;;;6.47;6.07;;;;;;;28.60;37.57;99706.91;6112667;23;20034;-68
2023/07/15 05:26:12;;;;;;;6.30;5.90;;;;;;;28.98;37.61;99739.13;6111796;23;20348;-70
2023/07/15 05:28:39;;;;;;;6.68;6.28;;;;;;;29.06;36.86;99696.69;6065877;23;20026;-69
2023/07/15 05:31:05;;;;;;;6.22;5.82;;;;;;;29.18;36.12;99660.59;6115013;23;20330;-68
2023/07/15 05:33:32;;;;;;;6.53;6.10;;;;;;;29.23;36.62;99679.66;6112192;23;20033;-67
2023/07/15 05:35:58;;;;;;;6.30;5.90;;;;;;;29.58;36.04;99699.78;6117587;23;20009;-68
2023/07/15 05:38:26;;;;;;;6.32;5.93;;;;;;;29.81;35.68;99713.41;6091732;23;20029;-68
2023/07/15 05:40:54;;;;;;;6.07;5.78;;;;;;;29.74;35.61;99668.59;6112456;23;20641;-70
2023/07/15 05:43:20;;;;;;;6.10;5.80;;;;;;;29.55;35.83;99660.50;6113962;23;20040;-70
2023/07/15 05:45:47;;;;;;;6.35;5.95;;;;;;;29.61;35.51;99658.78;6115132;23;20019;-70
2023/07/15 05:48:13;;;;;;;6.35;5.97;;;;;;;30.29;35.12;99760.34;6087390;23;20056;-69
2023/07/15 05:50:40;;;;;;;6.60;6.20;;;;;;;30.08;34.57;99675.13;6114404;23;20025;-70
2023/07/15 05:53:07;;;;;;;6.18;5.70;;;;;;;30.18;35.28;99678.06;6115371;23;20018;-70
2023/07/15 05:55:34;;;;;;;6.00;5.70;;;;;;;30.32;34.66;99697.66;6117489;23;20018;-70
2023/07/15 05:58:01;;;;;;;6.22;5.80;;;;;;;30.50;34.30;99729.19;6084479;23;20014;-70
2023/07/15 06:00:28;;;;;;;6.10;5.80;;;;;;;30.36;34.64;99706.13;6111690;23;20029;-70
2023/07/15 06:02:55;;;;;;;6.32;5.82;;;;;;;30.76;34.68;99729.78;6088743;23;20026;-70
2023/07/15 06:05:21;;;;;;;6.55;6.15;;;;;;;30.85;34.34;99732.97;6109354;23;20017;-70
2023/07/15 06:07:48;;;;;;;6.40;6.00;;;;;;;30.75;33.60;99666.69;6114240;23;20116;-68
2023/07/15 06:10:15;;;;;;;6.72;6.32;;;;;;;30.72;34.83;99718.59;6107941;23;20032;-68
2023/07/15 06:12:42;;;;;;;6.13;5.78;;;;;;;31.18;34.31;99773.00;6113837;23;20010;-70
2023/07/15 06:15:09;;;;;;;6.20;5.70;;;;;;;31.15;33.64;99728.25;6111791;23;20025;-70
2023/07/15 06:17:35;;;;;;;6.30;5.88;;;;;;;31.17;34.17;99731.53;6072370;23;20607;-70
2023/07/15 06:20:05;;;;;;;5.97;5.68;;;;;;;31.30;33.08;99746.69;6108211;23;20350;-68
2023/07/15 06:22:32;;;;;;;6.15;5.80;;;;;;;31.21;33.68;99746.25;6109992;23;20080;-69
2023/07/15 06:24:58;;;;;;;6.07;5.78;;;;;;;31.35;32.71;99689.03;6109263;23;20036;-69
2023/07/15 06:27:24;;;;;;;6.95;6.45;;;;;;;30.64;35.27;99691.88;6109573;23;20017;-70
2023/07/15 06:29:51;;;;;;;5.93;5.60;;;;;;;29.97;35.06;99636.19;6113317;23;20424;-70
2023/07/15 06:32:18;;;;;;;5.95;5.60;;;;;;;29.69;35.91;99653.03;6114591;23;20057;-70
2023/07/15 06:34:44;;;;;;;6.15;5.80;;;;;;;29.15;37.19;99665.63;6115920;23;20026;-70
2023/07/15 06:37:10;;;;;;;6.25;5.85;;;;;;;28.99;38.09;99723.78;6113867;23;20460;-70
2023/07/15 06:39:37;;;;;;;6.68;6.28;;;;;;;28.72;37.81;99705.13;6108411;23;20101;-68
2023/07/15 06:42:04;;;;;;;6.43;6.03;;;;;;;28.42;38.58;99673.41;6110558;23;20029;-69
2023/07/15 06:44:30;;;;;;;6.13;5.72;;;;;;;28.15;38.63;99667.44;6112056;23;20037;-68
2023/07/15 06:46:57;;;;;;;6.53;6.13;;;;;;;28.23;39.47;99706.81;6109708;23;20015;-68
2023/07/15 06:49:24;;;;;;;6.35;5.95;;;;;;;28.28;39.35;99725.03;6110969;23;20058;-68
2023/07/15 06:51:50;;;;;;;6.30;5.90;;;;;;;28.11;39.13;99660.03;6113280;23;20010;-68
2023/07/15 06:54:16;;;;;;;6.38;5.80;;;;;;;28.16;40.01;99735.72;6109198;23;20598;-68
2023/07/15 06:56:44;;;;;;;6.30;5.90;;;;;;;28.30;39.53;99733.72;6109915;23;20024;-70
2023/07/15 06:59:10;;;;;;;6.35;6.00;;;;;;;28.24;40.23;99749.78;6110420;23;20005;-67
2023/07/15 07:01:37;;;;;;;6.40;5.90;;;;;;;28.20;39.63;99696.44;6106452;23;20518;-68
2023/07/15 07:04:04;;;;;;;6.00;5.70;;;;;;;27.85;40.24;99692.31;6110332;23;20028;-69
2023/07/15 07:06:31;;;;;;;6.18;5.78;;;;;;;27.80;40.60;99710.19;6107929;23;20034;-68
2023/07/15 07:08:57;;;;;;;6.60;6.10;;;;;;;27.46;40.34;99669.13;6111080;23;20032;-69
2023/07/15 07:11:24;;;;;;;6.60;6.00;;;;;;;26.88;41.51;99645.72;6080502;23;20017;-70
2023/07/15 07:13:50;;;;;;;6.53;6.03;;;;;;;27.10;42.56;99723.56;6103985;23;20045;-70
2023/07/15 07:16:17;;;;;;;6.70;6.28;;;;;;;26.83;42.61;99720.94;6109089;23;20010;-70
2023/07/15 07:18:44;;;;;;;6.63;6.18;;;;;;;26.82;42.38;99721.97;6086846;23;20028;-68
2023/07/15 07:21:11;;;;;;;6.30;6.00;;;;;;;26.61;42.96;99707.72;6113100;23;20077;-70
2023/07/15 07:23:38;;;;;;;6.68;5.97;;;;;;;26.51;43.49;99731.50;6109762;23;20091;-70
2023/07/15 07:26:04;;;;;;;6.18;5.88;;;;;;;26.40;43.41;99706.06;6109671;23;20070;-70
2023/07/15 07:28:44;;;;;;;8.63;5.93;;;;;;;26.23;44.15;99712.88;6110715;23;20412;-68
2023/07/15 07:31:12;;;;;;;6.72;6.28;;;;;;;26.04;44.26;99709.13;6113133;23;20478;-70
2023/07/15 07:33:41;;;;;;;6.20;5.90;;;;;;;25.64;44.80;99666.06;6108936;23;20030;-70
2023/07/15 07:36:08;;;;;;;6.10;5.80;;;;;;;25.97;44.70;99717.19;6085265;23;20629;-68
2023/07/15 07:38:34;;;;;;;6.40;6.07;;;;;;;26.05;44.30;99735.81;6113568;23;20032;-70
2023/07/15 07:41:09;;;;;;;6.40;6.00;;;;;;;26.14;44.58;99768.75;6111072;23;20573;-68
2023/07/15 07:43:37;;;;;;;7.82;6.07;;;;;;;26.22;44.47;99765.84;6080203;23;20025;-68
2023/07/15 07:46:06;;;;;;;6.15;5.80;;;;;;;26.27;44.77;99763.38;6111160;23;20017;-69
2023/07/15 07:48:32;;;;;;;6.20;5.88;;;;;;;26.30;44.79;99778.28;6113854;23;20393;-68
2023/07/15 07:51:00;;;;;;;6.30;5.90;;;;;;;25.80;45.14;99692.56;6111919;23;20037;-69
2023/07/15 07:53:27;;;;;;;6.20;5.85;;;;;;;26.11;45.46;99762.94;6112848;23;20045;-68
2023/07/15 07:55:54;;;;;;;6.45;5.85;;;;;;;25.79;45.26;99720.44;6110985;23;20101;-68
2023/07/15 07:58:20;;;;;;;6.00;5.70;;;;;;;26.06;45.45;99785.06;6087973;23;20051;-68
2023/07/15 08:00:46;;;;;;;6.20;5.90;;;;;;;26.34;44.94;99802.88;6108250;23;20041;-68
2023/07/15 08:03:13;;;;;;;6.50;6.00;;;;;;;26.18;44.95;99772.69;6081215;23;20018;-70
2023/07/15 08:05:41;;;;;;;6.25;5.85;;;;;;;25.80;44.96;99716.75;6106146;23;20033;-68
2023/07/15 08:08:08;;;;;;;5.90;5.60;;;;;;;26.56;45.38;99808.91;6107009;23;20021;-68
2023/07/15 08:10:35;;;;;;;6.68;6.07;;;;;;;26.63;45.42;99815.16;6113348;23;20076;-69
2023/07/15 08:13:03;;;;;;;6.18;5.88;;;;;;;26.13;45.30;99734.81;6110260;23;20038;-69
2023/07/15 08:15:29;;;;;;;6.07;5.78;;;;;;;26.63;45.86;99802.53;6115418;23;20027;-68
2023/07/15 08:17:56;;;;;;;5.90;5.60;;;;;;;26.69;45.24;99811.66;6110541;23;20022;-68
2023/07/15 08:20:23;;;;;;;6.18;5.78;;;;;;;26.44;45.19;99768.34;6085107;23;20089;-70
2023/07/15 08:22:49;;;;;;;6.25;5.80;;;;;;;26.55;45.42;99797.31;6112409;23;20096;-70
2023/07/15 08:25:16;;;;;;;6.40;5.90;;;;;;;26.51;45.64;99812.22;6113425;23;20033;-70
2023/07/15 08:27:42;;;;;;;6.05;5.75;;;;;;;26.05;46.04;99786.09;6112512;23;20712;-70
2023/07/15 08:30:09;;;;;;;6.22;5.68;;;;;;;26.19;47.30;99875.69;6115996;23;20039;-69
2023/07/15 08:32:36;;;;;;;6.05;5.65;;;;;;;26.03;47.96;99906.47;6114237;23;20081;-69
2023/07/15 08:35:04;;;;;;;6.18;5.78;;;;;;;25.93;49.20;99971.34;6114686;23;20026;-68
2023/07/15 08:37:31;;;;;;;6.05;5.70;;;;;;;25.67;50.18;99929.00;6115750;23;20084;-70
2023/07/15 08:39:59;;;;;;;5.70;5.40;;;;;;;25.42;51.53;99950.13;6116606;23;20040;-71
2023/07/15 08:42:27;;;;;;;5.90;5.60;;;;;;;25.19;54.98;100038.94;6115523;23;20025;-71
2023/07/15 08:44:55;;;;;;;6.15;5.78;;;;;;;24.88;59.56;100061.53;6109855;23;20025;-68
2023/07/15 08:47:23;;;;;;;5.90;5.60;;;;;;;24.44;61.96;100040.97;6090275;23;20111;-68
2023/07/15 08:49:51;;;;;;;5.85;5.50;;;;;;;24.16;66.90;100067.59;6112761;23;20095;-71
2023/07/15 08:52:20;;;;;;;5.70;5.40;;;;;;;23.76;72.20;100086.53;6117247;23;20040;-68
2023/07/15 08:54:51;;;;;;;6.50;6.15;;;;;;;23.29;76.44;100101.81;6092226;23;20183;-69
2023/07/15 08:57:19;;;;;;;6.47;6.07;;;;;;;22.81;79.31;100086.81;6111396;23;20014;-69
2023/07/15 08:59:48;;;;;;;6.35;5.78;;;;;;;22.93;84.54;100151.47;6110091;23;20045;-68
2023/07/15 09:02:14;;;;;;;6.38;6.00;;;;;;;22.62;88.60;100161.13;6107830;23;20580;-69
2023/07/15 09:04:41;;;;;;;6.50;6.00;;;;;;;22.41;92.71;100145.66;6115950;23;20105;-69
2023/07/15 09:07:08;;;;;;;5.85;5.55;;;;;;;21.54;99.14;100054.53;6113060;23;20025;-69
2023/07/15 09:09:37;;;;;;;6.32;6.00;;;;;;;22.02;100.00;100166.88;6089747;23;20061;-70
2023/07/15 09:12:06;;;;;;;8.30;5.30;;;;;;;21.83;100.00;100200.94;6103774;23;20045;-69
2023/07/15 09:14:46;;;;;;;5.75;5.45;;;;;;;21.28;100.00;100135.53;6080545;23;20026;-68
2023/07/15 09:17:20;;;;;;;6.00;5.60;;;;;;;21.45;100.00;100192.53;6113015;23;20132;-69
2023/07/15 09:19:48;;;;;;;6.25;5.90;;;;;;;20.98;100.00;100163.63;6105996;23;20048;-69
2023/07/15 09:22:15;;;;;;;6.20;5.80;;;;;;;21.35;100.00;100247.84;6109699;23;20021;-69
2023/07/15 09:24:42;;;;;;;7.05;6.00;;;;;;;21.32;100.00;100256.16;6082261;23;20022;-69
2023/07/15 09:27:08;;;;;;;6.30;5.90;;;;;;;20.85;100.00;100213.94;6112485;23;20091;-69
2023/07/15 09:29:35;;;;;;;6.25;5.78;;;;;;;21.10;100.00;100266.41;6113655;23;20027;-69
2023/07/15 09:32:01;;;;;;;8.10;5.65;;;;;;;21.13;100.00;100273.28;6103986;23;20010;-68
2023/07/15 09:34:28;;;;;;;6.20;5.70;;;;;;;20.69;100.00;100228.03;6084067;23;20506;-68
2023/07/15 09:36:55;;;;;;;6.10;5.70;;;;;;;21.03;100.00;100268.06;6109919;23;20077;-68
2023/07/15 09:39:22;;;;;;;6.22;5.82;;;;;;;20.79;100.00;100255.41;6087812;23;20097;-68
2023/07/15 09:42:03;;;;;;;6.40;5.88;;;;;;;20.77;100.00;100246.72;6112561;23;20034;-68
2023/07/15 09:44:35;;;;;;;6.15;5.75;;;;;;;20.32;100.00;100207.72;6111333;23;20133;-68
2023/07/15 09:47:03;;;;;;;6.30;5.90;;;;;;;20.42;100.00;100236.94;6113331;23;20028;-68
2023/07/15 09:49:32;;;;;;;6.53;6.13;;;;;;;20.63;100.00;100239.31;6108196;23;20033;-69
2023/07/15 09:51:59;;;;;;;6.03;5.63;;;;;;;20.32;100.00;100147.25;6108470;23;20578;-68
2023/07/15 09:54:29;;;;;;;6.35;5.90;;;;;;;20.71;100.00;100199.38;6113918;23;20032;-69
2023/07/15 09:57:25;;;;;;;6.18;5.78;;;;;;;20.99;100.00;100215.16;6111991;23;20055;-68
2023/07/15 09:59:53;;;;;;;7.13;5.90;;;;;;;20.84;100.00;100158.91;6092207;23;20024;-69
2023/07/15 10:02:35;;;;;;;7.28;6.88;;;;;;;21.35;100.00;100193.59;6109167;23;20032;-69
2023/07/15 10:05:04;;;;;;;6.20;5.80;;;;;;;21.66;100.00;100193.91;6106259;23;20014;-69
2023/07/15 10:07:31;;;;;;;6.13;5.63;;;;;;;21.72;100.00;100174.53;6108370;23;20032;-69
2023/07/15 10:10:01;;;;;;;6.15;5.75;;;;;;;21.78;100.00;100179.22;6113193;23;20052;-68
2023/07/15 10:12:29;;;;;;;6.20;5.80;;;;;;;21.68;100.00;100154.50;6106483;23;20046;-68
2023/07/15 10:14:56;;;;;;;5.90;5.57;;;;;;;21.87;100.00;100180.03;6112979;23;20034;-69
2023/07/15 10:17:23;;;;;;;5.97;5.68;;;;;;;21.68;100.00;100127.78;6108621;23;20211;-68
2023/07/15 10:19:52;;;;;;;6.45;5.97;;;;;;;22.18;100.00;100193.59;6112676;23;20438;-68
2023/07/15 10:22:23;;;;;;;6.57;6.07;;;;;;;22.30;100.00;100199.47;6104890;23;20033;-68
2023/07/15 10:24:57;;;;;;;6.53;6.10;;;;;;;22.30;100.00;100184.25;6114100;23;20033;-69
2023/07/15 10:27:31;;;;;;;6.28;5.75;;;;;;;22.33;100.00;100195.59;6093351;23;20066;-68
2023/07/15 10:30:22;;;;;;;6.00;5.60;;;;;;;22.59;100.00;100214.09;6110242;23;20072;-68
2023/07/15 10:33:00;;;;;;;6.32;5.82;;;;;;;22.90;100.00;100232.94;6112464;23;20020;-69
2023/07/15 10:35:29;;;;;;;6.63;6.05;;;;;;;22.92;100.00;100192.63;6116633;23;20118;-69
2023/07/15 10:37:56;;;;;;;6.43;5.88;;;;;;;23.05;100.00;100192.94;6085181;23;20670;-68
2023/07/15 10:40:47;;;;;;;6.75;6.25;;;;;;;22.95;100.00;100197.63;6112609;23;20021;-69
2023/07/15 10:43:21;;;;;;;6.70;6.20;;;;;;;22.84;100.00;100185.47;6082322;23;20029;-69
2023/07/15 10:45:56;;;;;;;6.95;6.45;;;;;;;22.70;100.00;100203.88;6081851;23;20032;-68
2023/07/15 10:48:23;;;;;;;6.00;5.70;;;;;;;22.56;100.00;100223.31;6110003;23;20029;-68
2023/07/15 10:50:53;;;;;;;6.55;5.97;;;;;;;22.24;100.00;100235.72;6112453;23;20608;-68
2023/07/15 10:53:22;;;;;;;6.38;5.80;;;;;;;22.13;100.00;100253.88;6106658;23;20472;-68
2023/07/15 10:55:58;;;;;;;6.35;5.85;;;;;;;21.84;100.00;100256.03;6111925;23;20025;-69
2023/07/15 10:58:26;;;;;;;7.20;6.60;;;;;;;21.79;100.00;100238.81;6083128;23;20013;-68
2023/07/15 11:00:58;;;;;;;6.75;6.25;;;;;;;22.08;100.00;100257.88;6112111;23;20455;-68
2023/07/15 11:03:25;;;;;;;6.45;6.05;;;;;;;22.31;100.00;100259.94;6107982;23;20033;-69
2023/07/15 11:05:54;;;;;;;6.40;6.00;;;;;;;22.30;100.00;100227.00;6109749;23;20028;-68
2023/07/15 11:08:21;;;;;;;6.45;6.05;;;;;;;22.82;100.00;100257.03;6108850;23;20033;-70
2023/07/15 11:10:49;;;;;;;6.90;6.40;;;;;;;23.40;100.00;100277.28;6109594;23;20331;-69
2023/07/15 11:13:17;;;;;;;6.63;6.13;;;;;;;23.56;100.00;100228.16;6108470;23;20033;-68
2023/07/15 11:15:44;;;;;;;7.00;6.47;;;;;;;24.11;100.00;100246.94;6090636;23;20022;-69
2023/07/15 11:18:17;;;;;;;6.53;6.03;;;;;;;24.25;100.00;100206.75;6110061;23;20100;-68
2023/07/15 11:20:47;;;;;;;6.40;5.90;;;;;;;24.53;100.00;100205.34;6112249;23;20021;-68
2023/07/15 11:23:14;;;;;;;7.13;6.45;;;;;;;24.91;96.32;100187.31;6107486;23;20466;-70
2023/07/15 11:25:43;;;;;;;6.60;6.10;;;;;;;25.08;93.80;100183.41;6109597;23;20606;-70
2023/07/15 11:28:10;;;;;;;5.97;5.63;;;;;;;24.83;91.97;100169.44;6085153;23;20021;-69
2023/07/15 11:30:38;;;;;;;6.32;5.93;;;;;;;24.69;93.59;100171.13;6109132;23;20088;-69
2023/07/15 11:33:06;;;;;;;6.45;6.05;;;;;;;24.77;94.89;100177.41;6111536;23;20033;-69